sensor_id;sensor_type;location;lat;lon;timestamp;pressure;altitude;pressure_sealevel;temperature;humidity
76229;BME280;65021;53.174;18.160;2023-07-09T00:02:14;101669.86;;;13.83;76.59
76229;BME280;65021;53.174;18.160;2023-07-09T00:04:41;101669.70;;;13.76;76.84
76229;BME280;65021;53.174;18.160;2023-07-09T00:07:29;101664.41;;;13.69;77.12
76229;BME280;65021;53.174;18.160;2023-07-09T00:09:57;101665.20;;;13.62;76.67
76229;BME280;65021;53.174;18.160;2023-07-09T00:12:24;101664.07;;;13.57;77.75
76229;BME280;65021;53.174;18.160;2023-07-09T00:14:51;101662.77;;;13.51;77.38
76229;BME280;65021;53.174;18.160;2023-07-09T00:17:21;101658.36;;;13.47;78.01
76229;BME280;65021;53.174;18.160;2023-07-09T00:19:49;101662.21;;;13.44;78.80
76229;BME280;65021;53.174;18.160;2023-07-09T00:22:17;101664.83;;;13.42;79.94
76229;BME280;65021;53.174;18.160;2023-07-09T00:24:47;101665.63;;;13.40;80.25
76229;BME280;65021;53.174;18.160;2023-07-09T00:27:16;101668.64;;;13.40;80.24
76229;BME280;65021;53.174;18.160;2023-07-09T00:29:45;101665.04;;;13.39;80.09
76229;BME280;65021;53.174;18.160;2023-07-09T00:32:16;101664.14;;;13.39;81.50
76229;BME280;65021;53.174;18.160;2023-07-09T00:34:43;101663.95;;;13.38;80.42
76229;BME280;65021;53.174;18.160;2023-07-09T00:37:16;101668.70;;;13.36;81.54
76229;BME280;65021;53.174;18.160;2023-07-09T00:39:47;101667.13;;;13.33;81.94
76229;BME280;65021;53.174;18.160;2023-07-09T00:42:16;101667.46;;;13.30;81.76
76229;BME280;65021;53.174;18.160;2023-07-09T00:44:50;101667.59;;;13.27;81.69
76229;BME280;65021;53.174;18.160;2023-07-09T00:47:28;101666.58;;;13.24;81.94
76229;BME280;65021;53.174;18.160;2023-07-09T00:50:03;101665.80;;;13.22;82.14
76229;BME280;65021;53.174;18.160;2023-07-09T00:52:40;101665.86;;;13.20;82.10
76229;BME280;65021;53.174;18.160;2023-07-09T00:55:15;101662.26;;;13.19;81.95
76229;BME280;65021;53.174;18.160;2023-07-09T00:57:44;101659.91;;;13.17;81.95
76229;BME280;65021;53.174;18.160;2023-07-09T01:00:13;101662.61;;;13.15;82.82
76229;BME280;65021;53.174;18.160;2023-07-09T01:02:44;101667.80;;;13.13;83.28
76229;BME280;65021;53.174;18.160;2023-07-09T01:05:14;101664.30;;;13.11;83.11
76229;BME280;65021;53.174;18.160;2023-07-09T01:07:43;101663.27;;;13.10;82.55
76229;BME280;65021;53.174;18.160;2023-07-09T01:10:14;101662.98;;;13.08;82.43
76229;BME280;65021;53.174;18.160;2023-07-09T01:12:40;101667.36;;;13.05;82.54
76229;BME280;65021;53.174;18.160;2023-07-09T01:15:08;101666.69;;;13.01;82.70
76229;BME280;65021;53.174;18.160;2023-07-09T01:17:37;101665.66;;;12.98;83.13
76229;BME280;65021;53.174;18.160;2023-07-09T01:20:06;101666.27;;;12.95;82.21
76229;BME280;65021;53.174;18.160;2023-07-09T01:22:35;101667.15;;;12.91;82.59
76229;BME280;65021;53.174;18.160;2023-07-09T01:25:05;101667.80;;;12.88;82.71
76229;BME280;65021;53.174;18.160;2023-07-09T01:27:42;101667.11;;;12.86;82.47
76229;BME280;65021;53.174;18.160;2023-07-09T01:30:17;101672.34;;;12.86;82.97
76229;BME280;65021;53.174;18.160;2023-07-09T01:32:50;101673.02;;;12.87;82.59
76229;BME280;65021;53.174;18.160;2023-07-09T01:35:20;101673.38;;;12.88;82.68
76229;BME280;65021;53.174;18.160;2023-07-09T01:37:48;101671.81;;;12.92;82.49
76229;BME280;65021;53.174;18.160;2023-07-09T01:40:18;101670.61;;;12.97;82.95
76229;BME280;65021;53.174;18.160;2023-07-09T01:42:45;101665.60;;;13.04;83.42
76229;BME280;65021;53.174;18.160;2023-07-09T01:45:12;101667.22;;;13.04;84.01
76229;BME280;65021;53.174;18.160;2023-07-09T01:47:39;101668.42;;;13.06;83.18
76229;BME280;65021;53.174;18.160;2023-07-09T01:50:06;101668.67;;;13.12;85.52
76229;BME280;65021;53.174;18.160;2023-07-09T01:52:34;101673.17;;;13.18;84.46
76229;BME280;65021;53.174;18.160;2023-07-09T01:55:01;101672.70;;;13.21;83.48
76229;BME280;65021;53.174;18.160;2023-07-09T01:57:28;101673.20;;;13.24;83.46
76229;BME280;65021;53.174;18.160;2023-07-09T02:00:06;101677.75;;;13.27;84.02
76229;BME280;65021;53.174;18.160;2023-07-09T02:02:37;101678.88;;;13.25;84.06
76229;BME280;65021;53.174;18.160;2023-07-09T02:05:12;101684.64;;;13.28;83.45
76229;BME280;65021;53.174;18.160;2023-07-09T02:07:39;101684.02;;;13.28;83.52
76229;BME280;65021;53.174;18.160;2023-07-09T02:10:07;101687.97;;;13.27;83.47
76229;BME280;65021;53.174;18.160;2023-07-09T02:12:34;101694.41;;;13.29;84.39
76229;BME280;65021;53.174;18.160;2023-07-09T02:15:00;101692.23;;;13.32;83.51
76229;BME280;65021;53.174;18.160;2023-07-09T02:17:27;101691.41;;;13.35;83.04
76229;BME280;65021;53.174;18.160;2023-07-09T02:19:53;101694.80;;;13.38;82.84
76229;BME280;65021;53.174;18.160;2023-07-09T02:22:20;101692.05;;;13.40;83.01
76229;BME280;65021;53.174;18.160;2023-07-09T02:24:47;101691.66;;;13.43;83.26
76229;BME280;65021;53.174;18.160;2023-07-09T02:27:16;101689.11;;;13.44;82.98
76229;BME280;65021;53.174;18.160;2023-07-09T02:29:43;101692.34;;;13.43;83.39
76229;BME280;65021;53.174;18.160;2023-07-09T02:32:25;101694.95;;;13.41;83.90
76229;BME280;65021;53.174;18.160;2023-07-09T02:34:53;101689.69;;;13.38;83.92
76229;BME280;65021;53.174;18.160;2023-07-09T02:37:22;101688.44;;;13.39;83.53
76229;BME280;65021;53.174;18.160;2023-07-09T02:39:49;101693.71;;;13.38;83.86
76229;BME280;65021;53.174;18.160;2023-07-09T02:42:17;101696.40;;;13.38;83.28
76229;BME280;65021;53.174;18.160;2023-07-09T02:44:45;101696.57;;;13.38;83.79
76229;BME280;65021;53.174;18.160;2023-07-09T02:47:12;101700.41;;;13.37;83.65
76229;BME280;65021;53.174;18.160;2023-07-09T02:49:39;101700.27;;;13.36;83.68
76229;BME280;65021;53.174;18.160;2023-07-09T02:52:06;101699.04;;;13.34;83.85
76229;BME280;65021;53.174;18.160;2023-07-09T02:54:33;101698.95;;;13.37;83.79
76229;BME280;65021;53.174;18.160;2023-07-09T02:57:00;101697.52;;;13.40;83.66
76229;BME280;65021;53.174;18.160;2023-07-09T02:59:26;101702.49;;;13.43;83.61
76229;BME280;65021;53.174;18.160;2023-07-09T03:01:56;101707.32;;;13.46;84.02
76229;BME280;65021;53.174;18.160;2023-07-09T03:04:23;101712.11;;;13.50;84.64
76229;BME280;65021;53.174;18.160;2023-07-09T03:06:49;101716.52;;;13.59;84.26
76229;BME280;65021;53.174;18.160;2023-07-09T03:09:16;101715.23;;;13.83;84.06
76229;BME280;65021;53.174;18.160;2023-07-09T03:11:43;101717.44;;;14.45;83.72
76229;BME280;65021;53.174;18.160;2023-07-09T03:14:10;101709.73;;;15.67;81.22
76229;BME280;65021;53.174;18.160;2023-07-09T03:16:36;101706.70;;;16.85;78.92
76229;BME280;65021;53.174;18.160;2023-07-09T03:19:03;101710.37;;;17.81;77.11
76229;BME280;65021;53.174;18.160;2023-07-09T03:21:31;101709.69;;;18.67;75.21
76229;BME280;65021;53.174;18.160;2023-07-09T03:23:59;101712.36;;;19.43;73.51
76229;BME280;65021;53.174;18.160;2023-07-09T03:26:26;101705.75;;;20.26;72.74
76229;BME280;65021;53.174;18.160;2023-07-09T03:28:53;101704.90;;;21.05;72.03
76229;BME280;65021;53.174;18.160;2023-07-09T03:31:20;101707.48;;;21.80;69.06
76229;BME280;65021;53.174;18.160;2023-07-09T03:33:48;101711.05;;;22.43;68.13
76229;BME280;65021;53.174;18.160;2023-07-09T03:36:15;101710.83;;;22.98;66.17
76229;BME280;65021;53.174;18.160;2023-07-09T03:38:42;101708.60;;;23.50;63.57
76229;BME280;65021;53.174;18.160;2023-07-09T03:41:09;101702.67;;;23.89;63.50
76229;BME280;65021;53.174;18.160;2023-07-09T03:43:35;101707.65;;;24.10;62.56
76229;BME280;65021;53.174;18.160;2023-07-09T03:46:02;101706.21;;;23.95;60.79
76229;BME280;65021;53.174;18.160;2023-07-09T03:48:28;101712.68;;;23.36;62.69
76229;BME280;65021;53.174;18.160;2023-07-09T03:50:55;101711.92;;;22.97;61.85
76229;BME280;65021;53.174;18.160;2023-07-09T03:53:22;101712.02;;;22.67;62.54
76229;BME280;65021;53.174;18.160;2023-07-09T03:55:54;101711.35;;;22.28;63.69
76229;BME280;65021;53.174;18.160;2023-07-09T03:58:21;101717.55;;;21.95;63.38
76229;BME280;65021;53.174;18.160;2023-07-09T04:00:47;101721.91;;;21.65;64.02
76229;BME280;65021;53.174;18.160;2023-07-09T04:03:14;101718.73;;;21.64;64.17
76229;BME280;65021;53.174;18.160;2023-07-09T04:05:41;101715.10;;;21.72;63.91
76229;BME280;65021;53.174;18.160;2023-07-09T04:08:07;101712.77;;;21.69;63.70
76229;BME280;65021;53.174;18.160;2023-07-09T04:10:34;101722.58;;;21.66;62.76
76229;BME280;65021;53.174;18.160;2023-07-09T04:13:00;101723.78;;;21.44;62.45
76229;BME280;65021;53.174;18.160;2023-07-09T04:15:27;101723.78;;;21.24;62.38
76229;BME280;65021;53.174;18.160;2023-07-09T04:17:54;101725.73;;;20.92;62.16
76229;BME280;65021;53.174;18.160;2023-07-09T04:20:21;101732.72;;;20.62;62.36
76229;BME280;65021;53.174;18.160;2023-07-09T04:22:47;101737.25;;;20.46;62.75
76229;BME280;65021;53.174;18.160;2023-07-09T04:25:14;101735.17;;;20.32;63.12
76229;BME280;65021;53.174;18.160;2023-07-09T04:27:41;101737.77;;;20.18;62.93
76229;BME280;65021;53.174;18.160;2023-07-09T04:30:11;101735.36;;;20.09;63.36
76229;BME280;65021;53.174;18.160;2023-07-09T04:32:38;101733.97;;;20.01;63.09
76229;BME280;65021;53.174;18.160;2023-07-09T04:35:04;101730.05;;;19.89;63.42
76229;BME280;65021;53.174;18.160;2023-07-09T04:37:34;101733.65;;;19.93;63.55
76229;BME280;65021;53.174;18.160;2023-07-09T04:40:02;101733.71;;;19.96;63.67
76229;BME280;65021;53.174;18.160;2023-07-09T04:42:30;101737.94;;;19.97;63.58
76229;BME280;65021;53.174;18.160;2023-07-09T04:44:57;101738.34;;;19.93;63.68
76229;BME280;65021;53.174;18.160;2023-07-09T04:47:23;101728.98;;;19.93;63.93
76229;BME280;65021;53.174;18.160;2023-07-09T04:49:50;101731.39;;;19.93;63.87
76229;BME280;65021;53.174;18.160;2023-07-09T04:52:16;101733.86;;;20.00;63.82
76229;BME280;65021;53.174;18.160;2023-07-09T04:54:43;101741.09;;;20.03;63.80
76229;BME280;65021;53.174;18.160;2023-07-09T04:57:11;101744.93;;;19.97;64.33
76229;BME280;65021;53.174;18.160;2023-07-09T04:59:38;101747.79;;;20.05;63.84
76229;BME280;65021;53.174;18.160;2023-07-09T05:02:06;101755.13;;;20.11;63.70
76229;BME280;65021;53.174;18.160;2023-07-09T05:04:32;101761.77;;;20.17;63.71
76229;BME280;65021;53.174;18.160;2023-07-09T05:06:59;101758.89;;;20.18;63.88
76229;BME280;65021;53.174;18.160;2023-07-09T05:09:26;101761.02;;;20.29;63.51
76229;BME280;65021;53.174;18.160;2023-07-09T05:11:52;101764.38;;;20.23;63.48
76229;BME280;65021;53.174;18.160;2023-07-09T05:14:19;101764.81;;;20.29;63.54
76229;BME280;65021;53.174;18.160;2023-07-09T05:16:46;101757.56;;;20.39;63.80
76229;BME280;65021;53.174;18.160;2023-07-09T05:19:12;101755.95;;;20.47;63.28
76229;BME280;65021;53.174;18.160;2023-07-09T05:21:39;101755.63;;;20.58;63.49
76229;BME280;65021;53.174;18.160;2023-07-09T05:24:06;101755.77;;;20.74;63.12
76229;BME280;65021;53.174;18.160;2023-07-09T05:26:32;101753.08;;;20.91;62.57
76229;BME280;65021;53.174;18.160;2023-07-09T05:28:59;101757.13;;;20.96;62.29
76229;BME280;65021;53.174;18.160;2023-07-09T05:31:35;101757.10;;;21.01;62.53
76229;BME280;65021;53.174;18.160;2023-07-09T05:34:03;101762.07;;;21.24;62.29
76229;BME280;65021;53.174;18.160;2023-07-09T05:36:29;101759.73;;;21.43;61.40
76229;BME280;65021;53.174;18.160;2023-07-09T05:38:56;101762.59;;;21.38;61.06
76229;BME280;65021;53.174;18.160;2023-07-09T05:41:23;101756.56;;;21.41;61.10
76229;BME280;65021;53.174;18.160;2023-07-09T05:43:51;101757.06;;;21.43;60.13
76229;BME280;65021;53.174;18.160;2023-07-09T05:46:21;101754.33;;;21.44;59.95
76229;BME280;65021;53.174;18.160;2023-07-09T05:48:48;101758.25;;;21.41;60.09
76229;BME280;65021;53.174;18.160;2023-07-09T05:51:14;101759.96;;;21.57;59.72
76229;BME280;65021;53.174;18.160;2023-07-09T05:53:41;101756.93;;;21.72;59.31
76229;BME280;65021;53.174;18.160;2023-07-09T05:56:08;101749.05;;;21.99;59.14
76229;BME280;65021;53.174;18.160;2023-07-09T05:58:34;101748.05;;;22.30;58.36
76229;BME280;65021;53.174;18.160;2023-07-09T06:01:01;101744.91;;;22.46;57.79
76229;BME280;65021;53.174;18.160;2023-07-09T06:03:29;101747.98;;;22.65;57.24
76229;BME280;65021;53.174;18.160;2023-07-09T06:05:56;101742.31;;;22.91;56.83
76229;BME280;65021;53.174;18.160;2023-07-09T06:08:23;101743.00;;;23.02;55.61
76229;BME280;65021;53.174;18.160;2023-07-09T06:10:55;101744.46;;;23.07;55.36
76229;BME280;65021;53.174;18.160;2023-07-09T06:13:22;101751.53;;;23.27;54.50
76229;BME280;65021;53.174;18.160;2023-07-09T06:15:51;101751.31;;;23.26;53.34
76229;BME280;65021;53.174;18.160;2023-07-09T06:18:19;101750.33;;;23.47;54.08
76229;BME280;65021;53.174;18.160;2023-07-09T06:20:50;101753.13;;;23.57;52.39
76229;BME280;65021;53.174;18.160;2023-07-09T06:23:19;101752.94;;;23.64;52.39
76229;BME280;65021;53.174;18.160;2023-07-09T06:25:46;101755.74;;;23.69;52.26
76229;BME280;65021;53.174;18.160;2023-07-09T06:28:19;101749.79;;;23.72;51.72
76229;BME280;65021;53.174;18.160;2023-07-09T06:30:46;101749.00;;;23.68;51.39
76229;BME280;65021;53.174;18.160;2023-07-09T06:33:14;101746.19;;;23.73;51.24
76229;BME280;65021;53.174;18.160;2023-07-09T06:35:55;101742.61;;;23.80;50.83
76229;BME280;65021;53.174;18.160;2023-07-09T06:38:22;101747.61;;;23.88;50.96
76229;BME280;65021;53.174;18.160;2023-07-09T06:40:49;101744.86;;;23.83;49.88
76229;BME280;65021;53.174;18.160;2023-07-09T06:43:17;101744.63;;;23.78;49.99
76229;BME280;65021;53.174;18.160;2023-07-09T06:45:50;101744.31;;;23.98;50.18
76229;BME280;65021;53.174;18.160;2023-07-09T06:48:17;101748.09;;;24.10;48.64
76229;BME280;65021;53.174;18.160;2023-07-09T06:50:44;101745.59;;;23.96;47.84
76229;BME280;65021;53.174;18.160;2023-07-09T06:53:11;101750.70;;;23.79;48.79
76229;BME280;65021;53.174;18.160;2023-07-09T06:55:37;101752.57;;;23.82;48.60
76229;BME280;65021;53.174;18.160;2023-07-09T06:58:04;101751.06;;;23.95;48.65
76229;BME280;65021;53.174;18.160;2023-07-09T07:00:31;101750.50;;;24.15;48.47
76229;BME280;65021;53.174;18.160;2023-07-09T07:02:58;101753.48;;;24.11;46.85
76229;BME280;65021;53.174;18.160;2023-07-09T07:05:24;101748.42;;;24.00;47.46
76229;BME280;65021;53.174;18.160;2023-07-09T07:07:51;101751.30;;;24.15;47.35
76229;BME280;65021;53.174;18.160;2023-07-09T07:10:19;101754.41;;;24.53;46.61
76229;BME280;65021;53.174;18.160;2023-07-09T07:12:48;101749.88;;;24.87;46.50
76229;BME280;65021;53.174;18.160;2023-07-09T07:15:16;101745.17;;;25.31;46.05
76229;BME280;65021;53.174;18.160;2023-07-09T07:17:44;101749.08;;;25.56;44.85
76229;BME280;65021;53.174;18.160;2023-07-09T07:20:13;101750.41;;;25.30;45.07
76229;BME280;65021;53.174;18.160;2023-07-09T07:22:40;101753.14;;;25.21;45.66
76229;BME280;65021;53.174;18.160;2023-07-09T07:25:07;101755.85;;;25.17;44.93
76229;BME280;65021;53.174;18.160;2023-07-09T07:27:34;101748.99;;;25.04;45.00
76229;BME280;65021;53.174;18.160;2023-07-09T07:30:01;101750.90;;;24.98;44.71
76229;BME280;65021;53.174;18.160;2023-07-09T07:32:27;101750.45;;;24.82;44.74
76229;BME280;65021;53.174;18.160;2023-07-09T07:34:54;101744.29;;;24.68;45.31
76229;BME280;65021;53.174;18.160;2023-07-09T07:37:21;101747.20;;;24.54;45.29
76229;BME280;65021;53.174;18.160;2023-07-09T07:39:48;101747.58;;;24.47;45.60
76229;BME280;65021;53.174;18.160;2023-07-09T07:42:14;101745.43;;;24.52;45.73
76229;BME280;65021;53.174;18.160;2023-07-09T07:44:41;101746.23;;;24.55;45.64
76229;BME280;65021;53.174;18.160;2023-07-09T07:47:08;101746.48;;;24.45;45.13
76229;BME280;65021;53.174;18.160;2023-07-09T07:49:34;101748.11;;;24.24;45.67
76229;BME280;65021;53.174;18.160;2023-07-09T07:52:01;101745.22;;;24.30;45.76
76229;BME280;65021;53.174;18.160;2023-07-09T07:54:29;101750.02;;;24.42;45.33
76229;BME280;65021;53.174;18.160;2023-07-09T07:56:58;101748.69;;;24.41;45.21
76229;BME280;65021;53.174;18.160;2023-07-09T07:59:25;101749.48;;;24.41;44.94
76229;BME280;65021;53.174;18.160;2023-07-09T08:01:51;101748.13;;;24.40;44.63
76229;BME280;65021;53.174;18.160;2023-07-09T08:04:18;101749.95;;;24.17;44.75
76229;BME280;65021;53.174;18.160;2023-07-09T08:06:44;101747.89;;;24.12;44.84
76229;BME280;65021;53.174;18.160;2023-07-09T08:09:11;101747.55;;;24.24;44.95
76229;BME280;65021;53.174;18.160;2023-07-09T08:11:37;101744.80;;;24.39;44.81
76229;BME280;65021;53.174;18.160;2023-07-09T08:14:04;101738.06;;;24.38;44.59
76229;BME280;65021;53.174;18.160;2023-07-09T08:16:30;101738.57;;;24.41;44.72
76229;BME280;65021;53.174;18.160;2023-07-09T08:18:57;101734.25;;;24.38;44.69
76229;BME280;65021;53.174;18.160;2023-07-09T08:21:23;101733.41;;;24.53;44.40
76229;BME280;65021;53.174;18.160;2023-07-09T08:23:50;101736.60;;;24.54;42.50
76229;BME280;65021;53.174;18.160;2023-07-09T08:26:17;101738.67;;;24.57;42.66
76229;BME280;65021;53.174;18.160;2023-07-09T08:28:43;101736.27;;;24.63;42.97
76229;BME280;65021;53.174;18.160;2023-07-09T08:31:10;101731.83;;;24.71;41.93
76229;BME280;65021;53.174;18.160;2023-07-09T08:33:36;101731.70;;;24.83;42.13
76229;BME280;65021;53.174;18.160;2023-07-09T08:36:03;101731.66;;;24.91;41.93
76229;BME280;65021;53.174;18.160;2023-07-09T08:38:30;101728.05;;;24.86;40.96
76229;BME280;65021;53.174;18.160;2023-07-09T08:41:15;101725.45;;;24.86;41.57
76229;BME280;65021;53.174;18.160;2023-07-09T08:47:26;101718.73;;;24.98;39.83
76229;BME280;65021;53.174;18.160;2023-07-09T08:50:14;101720.07;;;25.04;39.61
76229;BME280;65021;53.174;18.160;2023-07-09T08:52:44;101720.88;;;25.11;39.94
76229;BME280;65021;53.174;18.160;2023-07-09T08:55:14;101723.98;;;25.24;39.88
76229;BME280;65021;53.174;18.160;2023-07-09T08:57:48;101727.59;;;25.35;40.01
76229;BME280;65021;53.174;18.160;2023-07-09T09:00:30;101725.63;;;25.41;39.12
76229;BME280;65021;53.174;18.160;2023-07-09T09:03:27;101722.36;;;25.37;39.82
76229;BME280;65021;53.174;18.160;2023-07-09T09:05:56;101721.30;;;25.42;39.82
76229;BME280;65021;53.174;18.160;2023-07-09T09:08:32;101724.73;;;25.61;38.72
76229;BME280;65021;53.174;18.160;2023-07-09T09:11:12;101726.96;;;25.68;38.15
76229;BME280;65021;53.174;18.160;2023-07-09T09:13:40;101726.30;;;25.66;37.59
76229;BME280;65021;53.174;18.160;2023-07-09T09:16:35;101722.25;;;25.65;37.41
76229;BME280;65021;53.174;18.160;2023-07-09T09:19:18;101720.19;;;25.72;37.07
76229;BME280;65021;53.174;18.160;2023-07-09T09:21:50;101718.89;;;25.73;35.79
76229;BME280;65021;53.174;18.160;2023-07-09T09:24:29;101711.66;;;25.59;35.56
76229;BME280;65021;53.174;18.160;2023-07-09T09:26:58;101710.27;;;25.52;35.32
76229;BME280;65021;53.174;18.160;2023-07-09T09:29:26;101706.11;;;25.57;35.19
76229;BME280;65021;53.174;18.160;2023-07-09T09:31:56;101705.67;;;25.52;35.04
76229;BME280;65021;53.174;18.160;2023-07-09T09:34:29;101703.99;;;25.57;35.14
76229;BME280;65021;53.174;18.160;2023-07-09T09:36:58;101705.32;;;25.74;35.15
76229;BME280;65021;53.174;18.160;2023-07-09T09:39:25;101703.13;;;25.87;34.83
76229;BME280;65021;53.174;18.160;2023-07-09T09:41:55;101695.80;;;26.03;34.65
76229;BME280;65021;53.174;18.160;2023-07-09T09:44:28;101696.65;;;26.03;34.29
76229;BME280;65021;53.174;18.160;2023-07-09T09:46:58;101698.70;;;26.01;34.36
76229;BME280;65021;53.174;18.160;2023-07-09T09:49:25;101697.67;;;26.01;34.27
76229;BME280;65021;53.174;18.160;2023-07-09T09:51:51;101696.83;;;26.05;34.35
76229;BME280;65021;53.174;18.160;2023-07-09T09:54:26;101695.77;;;26.08;34.13
76229;BME280;65021;53.174;18.160;2023-07-09T09:56:54;101696.55;;;25.97;34.16
76229;BME280;65021;53.174;18.160;2023-07-09T09:59:25;101693.90;;;25.96;34.57
76229;BME280;65021;53.174;18.160;2023-07-09T10:02:01;101696.86;;;26.06;34.42
76229;BME280;65021;53.174;18.160;2023-07-09T10:04:29;101694.07;;;26.14;33.80
76229;BME280;65021;53.174;18.160;2023-07-09T10:06:59;101696.90;;;26.23;33.97
76229;BME280;65021;53.174;18.160;2023-07-09T10:09:49;101697.40;;;26.22;33.98
76229;BME280;65021;53.174;18.160;2023-07-09T10:14:51;101699.21;;;26.36;33.35
76229;BME280;65021;53.174;18.160;2023-07-09T10:18:03;101702.77;;;26.37;33.15
76229;BME280;65021;53.174;18.160;2023-07-09T10:21:01;101704.05;;;26.42;33.32
76229;BME280;65021;53.174;18.160;2023-07-09T10:23:44;101703.50;;;26.44;32.56
76229;BME280;65021;53.174;18.160;2023-07-09T10:26:20;101711.45;;;26.38;32.58
76229;BME280;65021;53.174;18.160;2023-07-09T10:29:07;101705.94;;;26.34;32.04
76229;BME280;65021;53.174;18.160;2023-07-09T10:31:58;101710.95;;;26.32;31.95
76229;BME280;65021;53.174;18.160;2023-07-09T10:34:36;101707.67;;;26.31;32.30
76229;BME280;65021;53.174;18.160;2023-07-09T10:37:34;101712.88;;;26.36;31.72
76229;BME280;65021;53.174;18.160;2023-07-09T10:40:12;101711.00;;;26.34;31.36
76229;BME280;65021;53.174;18.160;2023-07-09T10:42:48;101703.70;;;26.40;31.43
76229;BME280;65021;53.174;18.160;2023-07-09T10:45:30;101701.35;;;26.54;31.35
76229;BME280;65021;53.174;18.160;2023-07-09T10:48:09;101704.63;;;26.63;30.58
76229;BME280;65021;53.174;18.160;2023-07-09T10:50:46;101708.05;;;26.63;31.15
76229;BME280;65021;53.174;18.160;2023-07-09T10:56:07;101700.70;;;26.64;30.25
76229;BME280;65021;53.174;18.160;2023-07-09T11:01:36;101697.64;;;26.99;30.08
76229;BME280;65021;53.174;18.160;2023-07-09T11:04:29;101697.21;;;27.17;30.21
76229;BME280;65021;53.174;18.160;2023-07-09T11:06:58;101696.58;;;27.19;29.89
76229;BME280;65021;53.174;18.160;2023-07-09T11:09:36;101695.14;;;27.03;30.18
76229;BME280;65021;53.174;18.160;2023-07-09T11:12:15;101688.63;;;26.90;29.23
76229;BME280;65021;53.174;18.160;2023-07-09T11:15:05;101693.45;;;26.77;29.83
76229;BME280;65021;53.174;18.160;2023-07-09T11:17:37;101694.30;;;26.89;30.63
76229;BME280;65021;53.174;18.160;2023-07-09T11:20:33;101689.38;;;26.98;30.34
76229;BME280;65021;53.174;18.160;2023-07-09T11:23:06;101692.08;;;27.10;30.51
76229;BME280;65021;53.174;18.160;2023-07-09T11:25:45;101695.58;;;27.20;30.35
76229;BME280;65021;53.174;18.160;2023-07-09T11:28:13;101691.35;;;27.20;30.15
76229;BME280;65021;53.174;18.160;2023-07-09T11:33:27;101693.25;;;27.21;30.37
76229;BME280;65021;53.174;18.160;2023-07-09T11:36:07;101691.17;;;27.24;30.57
76229;BME280;65021;53.174;18.160;2023-07-09T11:38:44;101687.98;;;27.36;30.54
76229;BME280;65021;53.174;18.160;2023-07-09T11:41:39;101685.58;;;27.38;30.76
76229;BME280;65021;53.174;18.160;2023-07-09T11:49:34;101686.77;;;27.44;31.32
76229;BME280;65021;53.174;18.160;2023-07-09T11:52:07;101677.89;;;27.41;31.08
76229;BME280;65021;53.174;18.160;2023-07-09T11:54:36;101678.27;;;27.31;30.90
76229;BME280;65021;53.174;18.160;2023-07-09T11:57:12;101676.44;;;27.47;30.88
76229;BME280;65021;53.174;18.160;2023-07-09T11:59:43;101674.45;;;27.56;31.14
76229;BME280;65021;53.174;18.160;2023-07-09T12:02:18;101670.98;;;27.62;31.17
76229;BME280;65021;53.174;18.160;2023-07-09T12:04:49;101665.04;;;27.75;31.10
76229;BME280;65021;53.174;18.160;2023-07-09T12:07:17;101657.86;;;27.88;31.29
76229;BME280;65021;53.174;18.160;2023-07-09T12:09:50;101651.42;;;28.07;31.35
76229;BME280;65021;53.174;18.160;2023-07-09T12:12:24;101651.01;;;28.26;31.50
76229;BME280;65021;53.174;18.160;2023-07-09T12:14:51;101650.57;;;28.28;30.73
76229;BME280;65021;53.174;18.160;2023-07-09T12:17:19;101647.64;;;28.21;30.73
76229;BME280;65021;53.174;18.160;2023-07-09T12:19:51;101647.25;;;28.31;30.64
76229;BME280;65021;53.174;18.160;2023-07-09T12:22:20;101641.95;;;28.37;30.64
76229;BME280;65021;53.174;18.160;2023-07-09T12:24:49;101639.48;;;28.41;30.53
76229;BME280;65021;53.174;18.160;2023-07-09T12:27:19;101634.54;;;28.48;30.77
76229;BME280;65021;53.174;18.160;2023-07-09T12:29:46;101630.56;;;28.54;30.21
76229;BME280;65021;53.174;18.160;2023-07-09T12:32:15;101633.16;;;28.58;30.39
76229;BME280;65021;53.174;18.160;2023-07-09T12:34:53;101633.89;;;28.65;30.50
76229;BME280;65021;53.174;18.160;2023-07-09T12:37:21;101630.14;;;28.71;30.23
76229;BME280;65021;53.174;18.160;2023-07-09T12:39:51;101629.75;;;28.74;30.01
76229;BME280;65021;53.174;18.160;2023-07-09T12:42:20;101625.20;;;28.89;30.15
76229;BME280;65021;53.174;18.160;2023-07-09T12:44:50;101624.80;;;29.10;29.49
76229;BME280;65021;53.174;18.160;2023-07-09T12:47:18;101618.45;;;29.15;29.06
76229;BME280;65021;53.174;18.160;2023-07-09T12:49:46;101617.48;;;29.15;28.72
76229;BME280;65021;53.174;18.160;2023-07-09T12:52:22;101614.38;;;28.90;28.67
76229;BME280;65021;53.174;18.160;2023-07-09T12:54:58;101613.44;;;28.72;28.97
76229;BME280;65021;53.174;18.160;2023-07-09T12:57:25;101609.00;;;28.68;29.23
76229;BME280;65021;53.174;18.160;2023-07-09T12:59:54;101606.13;;;28.62;29.89
76229;BME280;65021;53.174;18.160;2023-07-09T13:02:26;101607.31;;;28.59;30.29
76229;BME280;65021;53.174;18.160;2023-07-09T13:05:03;101607.10;;;28.66;30.15
76229;BME280;65021;53.174;18.160;2023-07-09T13:07:33;101604.59;;;28.65;30.14
76229;BME280;65021;53.174;18.160;2023-07-09T13:12:45;101605.22;;;28.62;30.27
76229;BME280;65021;53.174;18.160;2023-07-09T13:15:44;101603.91;;;28.60;30.19
76229;BME280;65021;53.174;18.160;2023-07-09T13:18:14;101600.47;;;28.71;30.33
76229;BME280;65021;53.174;18.160;2023-07-09T13:20:43;101599.14;;;28.90;30.08